createdAt,value
2022-08-30T00:00:54.994Z,93.61
2022-08-30T00:01:56.563Z,94.86
2022-08-30T00:03:00.838Z,94.60
2022-08-30T00:04:03.197Z,94.76
2022-08-30T00:05:05.183Z,94.71
2022-08-30T00:06:09.551Z,94.54
2022-08-30T00:07:11.187Z,95.24
2022-08-30T00:08:13.385Z,95.56
2022-08-30T00:09:15.300Z,95.24
2022-08-30T00:10:17.187Z,95.55
2022-08-30T00:11:23.435Z,95.88
2022-08-30T00:12:25.363Z,95.88
2022-08-30T00:13:27.239Z,96.05
2022-08-30T00:14:28.780Z,95.86
2022-08-30T00:15:30.523Z,96.11
2022-08-30T00:16:32.126Z,96.09
2022-08-30T00:17:33.725Z,96.22
2022-08-30T00:18:36.793Z,96.39
2022-08-30T00:19:38.543Z,96.59
2022-08-30T00:20:40.156Z,97.17
2022-08-30T00:21:41.629Z,97.45
2022-08-30T00:22:43.609Z,97.09
2022-08-30T00:23:45.591Z,96.72
2022-08-30T00:24:47.133Z,96.78
2022-08-30T00:25:48.604Z,97.08
2022-08-30T00:26:50.131Z,97.46
2022-08-30T00:27:52.102Z,98.02
2022-08-30T00:28:53.635Z,98.03
2022-08-30T00:29:55.827Z,97.62
2022-08-30T00:30:57.899Z,97.65
2022-08-30T00:31:59.570Z,97.43
2022-08-30T00:33:01.095Z,97.63
2022-08-30T00:34:02.712Z,96.96
2022-08-30T00:35:06.697Z,96.94
2022-08-30T00:36:08.201Z,97.13
2022-08-30T00:37:10.142Z,97.13
2022-08-30T00:38:13.006Z,97.56
2022-08-30T00:39:14.764Z,98.80
2022-08-30T00:40:17.122Z,98.46
2022-08-30T00:41:18.794Z,97.72
2022-08-30T00:42:21.353Z,99.07
2022-08-30T00:43:27.912Z,98.77
2022-08-30T00:44:29.925Z,98.66
2022-08-30T00:45:35.505Z,98.44
2022-08-30T00:46:37.385Z,98.68
2022-08-30T00:47:39.051Z,98.54
2022-08-30T00:48:45.153Z,98.95
2022-08-30T00:49:50.945Z,99.13
2022-08-30T00:50:57.641Z,98.78
2022-08-30T00:52:00.313Z,98.65
2022-08-30T00:53:05.107Z,98.77
2022-08-30T00:54:07.058Z,100.00
2022-08-30T00:55:09.900Z,99.39
2022-08-30T00:56:11.932Z,99.21
2022-08-30T00:57:14.933Z,98.95
2022-08-30T00:58:21.732Z,98.14
2022-08-30T00:59:24.562Z,98.39
2022-08-30T01:00:26.698Z,98.78
2022-08-30T01:01:30.468Z,98.90
2022-08-30T01:02:35.757Z,98.33
2022-08-30T01:03:38.722Z,99.39
2022-08-30T01:04:42.946Z,99.36
2022-08-30T01:05:45.601Z,99.73
2022-08-30T01:06:47.187Z,100.00
2022-08-30T01:07:48.683Z,99.89
2022-08-30T01:08:50.192Z,99.87
2022-08-30T01:09:51.914Z,99.79
2022-08-30T01:10:54.780Z,99.65
2022-08-30T01:11:56.615Z,100.00
2022-08-30T01:12:59.248Z,99.73
2022-08-30T01:14:03.003Z,99.36
2022-08-30T01:15:06.493Z,99.33
2022-08-30T01:16:08.556Z,99.83
2022-08-30T01:17:11.142Z,99.50
2022-08-30T01:18:17.352Z,100.00
2022-08-30T01:19:34.471Z,100.00
2022-08-30T01:20:43.571Z,100.00
2022-08-30T01:21:54.513Z,100.00
2022-08-30T01:22:59.243Z,100.00
2022-08-30T01:24:02.057Z,100.00
2022-08-30T01:25:08.159Z,100.00
2022-08-30T01:26:11.047Z,100.00
2022-08-30T01:27:12.529Z,100.00
2022-08-30T01:28:20.624Z,100.00
2022-08-30T01:29:25.773Z,100.00
2022-08-30T01:30:29.159Z,100.00
2022-08-30T01:31:30.828Z,100.00
2022-08-30T01:32:39.277Z,100.00
2022-08-30T01:33:40.925Z,100.00
2022-08-30T01:34:43.162Z,100.00
2022-08-30T01:35:48.852Z,100.00
2022-08-30T01:36:50.516Z,100.00
2022-08-30T01:37:52.108Z,100.00
2022-08-30T01:38:56.804Z,100.00
2022-08-30T01:39:58.483Z,100.00
2022-08-30T01:41:09.690Z,100.00
2022-08-30T01:42:11.196Z,100.00
2022-08-30T01:43:15.943Z,100.00
2022-08-30T01:44:17.706Z,100.00
2022-08-30T01:45:19.289Z,100.00
2022-08-30T01:46:24.376Z,100.00
2022-08-30T01:47:26.085Z,100.00
2022-08-30T01:48:31.229Z,100.00
2022-08-30T01:49:32.920Z,100.00
2022-08-30T01:50:34.678Z,100.00
2022-08-30T01:51:38.874Z,100.00
2022-08-30T01:52:40.511Z,100.00
2022-08-30T01:53:44.135Z,100.00
2022-08-30T01:54:46.446Z,100.00
2022-08-30T01:55:48.086Z,100.00
2022-08-30T01:56:49.655Z,100.00
2022-08-30T01:57:51.158Z,100.00
2022-08-30T01:58:53.491Z,100.00
2022-08-30T01:59:55.315Z,100.00
2022-08-30T02:00:57.523Z,100.00
2022-08-30T02:01:59.568Z,100.00
2022-08-30T02:03:01.173Z,100.00
2022-08-30T02:04:03.826Z,100.00
2022-08-30T02:05:06.997Z,100.00
2022-08-30T02:06:12.727Z,100.00
2022-08-30T02:07:14.669Z,100.00
2022-08-30T02:08:18.672Z,100.00
2022-08-30T02:09:20.860Z,100.00
2022-08-30T02:10:22.724Z,100.00
2022-08-30T02:11:24.304Z,100.00
2022-08-30T02:12:25.965Z,100.00
2022-08-30T02:13:27.805Z,100.00
2022-08-30T02:14:29.265Z,100.00
2022-08-30T02:15:30.841Z,100.00
2022-08-30T02:16:37.661Z,100.00
2022-08-30T02:17:41.644Z,100.00
2022-08-30T02:18:43.327Z,100.00
2022-08-30T02:19:45.591Z,100.00
2022-08-30T02:20:47.233Z,100.00
2022-08-30T02:21:48.907Z,100.00
2022-08-30T02:22:50.823Z,100.00
2022-08-30T02:23:52.605Z,100.00
2022-08-30T02:24:54.161Z,100.00
2022-08-30T02:25:55.788Z,100.00
2022-08-30T02:26:57.509Z,100.00
2022-08-30T02:27:59.133Z,100.00
2022-08-30T02:29:00.721Z,100.00
2022-08-30T02:30:02.431Z,100.00
2022-08-30T02:31:04.603Z,100.00
2022-08-30T02:32:06.260Z,100.00
2022-08-30T02:33:07.789Z,100.00
2022-08-30T02:34:09.517Z,100.00
2022-08-30T02:35:11.074Z,100.00
2022-08-30T02:36:13.581Z,100.00
2022-08-30T02:37:15.661Z,100.00
2022-08-30T02:38:19.939Z,100.00
2022-08-30T02:39:24.101Z,100.00
2022-08-30T02:40:25.881Z,100.00
2022-08-30T02:41:27.428Z,100.00
2022-08-30T02:42:29.045Z,100.00
2022-08-30T02:43:30.673Z,100.00
2022-08-30T02:44:32.362Z,100.00
2022-08-30T02:45:33.964Z,100.00
2022-08-30T02:46:36.646Z,100.00
2022-08-30T02:47:38.161Z,100.00
2022-08-30T02:48:39.772Z,100.00
2022-08-30T02:49:41.357Z,100.00
2022-08-30T02:50:45.533Z,100.00
2022-08-30T02:51:47.085Z,100.00
2022-08-30T02:52:48.789Z,100.00
2022-08-30T02:53:50.496Z,100.00
2022-08-30T02:54:52.069Z,100.00
2022-08-30T02:55:53.611Z,100.00
2022-08-30T02:56:56.289Z,100.00
2022-08-30T02:57:57.912Z,100.00
2022-08-30T02:58:59.538Z,100.00
2022-08-30T03:00:01.709Z,100.00
2022-08-30T03:01:05.050Z,100.00
2022-08-30T03:02:06.672Z,100.00
2022-08-30T03:03:08.445Z,100.00
2022-08-30T03:04:10.852Z,99.42
2022-08-30T03:05:15.094Z,99.35
2022-08-30T03:06:17.038Z,99.23
2022-08-30T03:07:19.657Z,99.80
2022-08-30T03:08:22.161Z,100.00
2022-08-30T03:09:23.804Z,99.90
2022-08-30T03:10:27.607Z,100.00
2022-08-30T03:11:29.475Z,100.00
2022-08-30T03:12:32.531Z,100.00
2022-08-30T03:13:36.027Z,100.00
2022-08-30T03:14:38.990Z,98.92
2022-08-30T03:15:41.055Z,99.39
2022-08-30T03:16:42.670Z,100.00
2022-08-30T03:17:44.218Z,99.93
2022-08-30T03:18:45.691Z,100.00
2022-08-30T03:19:47.457Z,100.00
2022-08-30T03:20:54.637Z,100.00
2022-08-30T03:21:56.610Z,100.00
2022-08-30T03:22:58.324Z,100.00
2022-08-30T03:23:59.802Z,100.00
2022-08-30T03:25:01.750Z,100.00
2022-08-30T03:26:03.688Z,100.00
2022-08-30T03:27:05.207Z,100.00
2022-08-30T03:28:07.147Z,100.00
2022-08-30T03:29:08.707Z,100.00
2022-08-30T03:30:13.326Z,100.00
2022-08-30T03:31:14.913Z,100.00
2022-08-30T03:32:16.828Z,100.00
2022-08-30T03:33:18.728Z,100.00
2022-08-30T03:34:25.256Z,100.00
2022-08-30T03:35:27.571Z,100.00
2022-08-30T03:36:34.826Z,100.00
2022-08-30T03:37:36.512Z,100.00
2022-08-30T03:38:39.167Z,100.00
2022-08-30T03:39:40.940Z,100.00
2022-08-30T03:40:42.835Z,100.00
2022-08-30T03:41:45.789Z,100.00
2022-08-30T03:42:48.713Z,100.00
2022-08-30T03:43:51.501Z,100.00
2022-08-30T03:45:02.197Z,100.00
2022-08-30T03:46:04.669Z,100.00
2022-08-30T03:47:07.255Z,100.00
2022-08-30T03:48:08.850Z,100.00
2022-08-30T03:49:10.379Z,100.00
2022-08-30T03:50:13.559Z,100.00
2022-08-30T03:51:15.108Z,100.00
2022-08-30T03:52:16.602Z,100.00
2022-08-30T03:53:20.263Z,100.00
2022-08-30T03:54:24.198Z,100.00
2022-08-30T03:55:28.077Z,100.00
2022-08-30T03:56:29.708Z,100.00
2022-08-30T03:57:31.335Z,100.00
2022-08-30T03:58:34.419Z,100.00
2022-08-30T03:59:35.961Z,100.00
2022-08-30T04:00:37.720Z,100.00
2022-08-30T04:01:39.735Z,100.00
2022-08-30T04:02:41.869Z,100.00
2022-08-30T04:03:43.720Z,100.00
2022-08-30T04:04:45.300Z,100.00
2022-08-30T04:05:46.873Z,100.00
2022-08-30T04:06:49.275Z,100.00
2022-08-30T04:07:50.899Z,100.00
2022-08-30T04:08:52.487Z,100.00
2022-08-30T04:09:54.067Z,100.00
2022-08-30T04:10:56.168Z,100.00
2022-08-30T04:11:57.740Z,100.00
2022-08-30T04:12:59.287Z,100.00
2022-08-30T04:14:00.974Z,100.00
2022-08-30T04:15:03.370Z,100.00
2022-08-30T04:16:05.223Z,100.00
2022-08-30T04:17:06.829Z,100.00
2022-08-30T04:18:08.569Z,100.00
2022-08-30T04:19:10.583Z,100.00
2022-08-30T04:20:12.341Z,100.00
2022-08-30T04:21:15.619Z,100.00
2022-08-30T04:22:17.572Z,100.00
2022-08-30T04:23:19.843Z,100.00
2022-08-30T04:24:21.391Z,100.00
2022-08-30T04:25:23.412Z,99.60
2022-08-30T04:26:29.178Z,99.37
2022-08-30T04:27:31.344Z,98.37
2022-08-30T04:28:35.068Z,97.95
2022-08-30T04:29:36.673Z,97.33
2022-08-30T04:30:43.193Z,96.73
2022-08-30T04:31:45.409Z,95.58
2022-08-30T04:32:47.231Z,95.42
2022-08-30T04:33:49.238Z,94.80
2022-08-30T04:34:50.967Z,94.83
2022-08-30T04:35:52.930Z,94.45
2022-08-30T04:36:55.719Z,94.12
2022-08-30T04:37:59.136Z,94.69
2022-08-30T04:39:00.671Z,95.40
2022-08-30T04:40:02.562Z,95.35
2022-08-30T04:41:09.884Z,95.45
2022-08-30T04:42:11.448Z,95.55
2022-08-30T04:43:13.077Z,94.02
2022-08-30T04:44:17.847Z,94.36
2022-08-30T04:45:22.456Z,93.90
2022-08-30T04:46:24.004Z,93.36
2022-08-30T04:47:25.894Z,93.38
2022-08-30T04:48:27.392Z,93.44
2022-08-30T04:49:29.043Z,93.68
2022-08-30T04:50:31.086Z,94.13
2022-08-30T04:51:32.611Z,94.26
2022-08-30T04:52:34.106Z,94.71
2022-08-30T04:53:36.385Z,95.10
2022-08-30T04:54:38.522Z,95.54
2022-08-30T04:55:42.914Z,96.22
2022-08-30T04:56:44.506Z,95.30
2022-08-30T04:57:46.077Z,95.49
2022-08-30T04:58:49.540Z,96.19
2022-08-30T04:59:51.108Z,97.50
2022-08-30T05:00:53.411Z,97.52
2022-08-30T05:01:55.201Z,98.20
2022-08-30T05:02:57.050Z,98.30
2022-08-30T05:03:59.576Z,98.37
2022-08-30T05:05:20.746Z,97.90
2022-08-30T05:06:23.927Z,98.14
2022-08-30T05:07:25.451Z,98.58
2022-08-30T05:08:26.990Z,98.00
2022-08-30T05:09:28.567Z,98.35
2022-08-30T05:10:30.284Z,98.23
2022-08-30T05:11:31.914Z,96.32
2022-08-30T05:12:33.465Z,95.86
2022-08-30T05:13:37.071Z,95.07
2022-08-30T05:14:38.609Z,94.98
2022-08-30T05:15:40.687Z,94.90
2022-08-30T05:16:42.564Z,94.23
2022-08-30T05:17:44.138Z,93.74
2022-08-30T05:18:48.082Z,91.22
2022-08-30T05:19:50.086Z,91.13
2022-08-30T05:21:09.852Z,90.52
2022-08-30T05:22:11.984Z,90.63
2022-08-30T05:23:13.677Z,88.94
2022-08-30T05:24:15.277Z,89.72
2022-08-30T05:25:23.560Z,89.14
2022-08-30T05:26:28.122Z,87.86
2022-08-30T05:27:29.615Z,87.19
2022-08-30T05:28:31.177Z,86.76
2022-08-30T05:29:33.488Z,85.91
2022-08-30T05:30:37.123Z,85.94
2022-08-30T05:31:38.697Z,85.89
2022-08-30T05:32:40.549Z,86.36
2022-08-30T05:33:43.225Z,85.28
2022-08-30T05:34:45.055Z,85.90
2022-08-30T05:35:46.615Z,85.36
2022-08-30T05:36:48.172Z,85.99
2022-08-30T05:37:50.420Z,85.79
2022-08-30T05:38:52.345Z,86.11
2022-08-30T05:39:53.959Z,84.76
2022-08-30T05:40:55.498Z,84.79
2022-08-30T05:41:57.997Z,84.15
2022-08-30T05:43:00.358Z,84.43
2022-08-30T05:44:02.958Z,84.07
2022-08-30T05:45:05.799Z,84.85
2022-08-30T05:46:10.537Z,84.53
2022-08-30T05:47:12.157Z,84.94
2022-08-30T05:48:13.751Z,84.82
2022-08-30T05:49:16.109Z,84.95
2022-08-30T05:50:17.770Z,85.40
2022-08-30T05:51:22.785Z,85.67
2022-08-30T05:52:24.301Z,85.54
2022-08-30T05:53:25.965Z,85.38
2022-08-30T05:54:27.498Z,85.57
2022-08-30T05:55:29.044Z,86.61
2022-08-30T05:56:33.805Z,86.32
2022-08-30T05:57:37.750Z,86.49
2022-08-30T05:58:42.460Z,84.85
2022-08-30T05:59:44.351Z,85.16
2022-08-30T06:00:45.969Z,85.13
2022-08-30T06:01:48.279Z,85.33
2022-08-30T06:02:53.968Z,84.45
2022-08-30T06:04:01.590Z,84.29
2022-08-30T06:05:08.321Z,83.90
2022-08-30T06:06:09.828Z,81.96
2022-08-30T06:07:13.193Z,80.63
2022-08-30T06:08:17.075Z,80.58
2022-08-30T06:09:19.954Z,79.62
2022-08-30T06:10:21.759Z,79.38
2022-08-30T06:11:25.262Z,79.18
2022-08-30T06:12:27.975Z,79.06
2022-08-30T06:13:32.287Z,79.58
2022-08-30T06:14:34.368Z,78.20
2022-08-30T06:15:37.102Z,77.33
2022-08-30T06:16:40.138Z,77.12
2022-08-30T06:17:41.699Z,76.90
2022-08-30T06:18:43.353Z,75.31
2022-08-30T06:19:44.900Z,75.50
2022-08-30T06:20:51.144Z,76.08
2022-08-30T06:21:52.655Z,74.67
2022-08-30T06:22:54.569Z,73.21
2022-08-30T06:23:58.376Z,71.98
2022-08-30T06:24:59.988Z,69.80
2022-08-30T06:26:07.977Z,70.12
2022-08-30T06:27:10.987Z,70.85
2022-08-30T06:28:13.041Z,67.39
2022-08-30T06:29:18.140Z,67.47
2022-08-30T06:30:19.767Z,66.86
2022-08-30T06:31:23.850Z,64.91
2022-08-30T06:32:25.760Z,64.61
2022-08-30T06:33:27.576Z,63.68
2022-08-30T06:34:29.576Z,62.67
2022-08-30T06:35:37.969Z,59.38
2022-08-30T06:36:44.153Z,57.92
2022-08-30T06:37:45.661Z,54.37
2022-08-30T06:38:50.381Z,54.83
2022-08-30T06:39:52.100Z,52.64
2022-08-30T06:40:53.639Z,50.34
2022-08-30T06:41:55.735Z,49.84
2022-08-30T06:42:57.387Z,48.82
2022-08-30T06:44:02.110Z,47.94
2022-08-30T06:45:11.091Z,47.90
2022-08-30T06:46:16.347Z,47.25
2022-08-30T06:47:17.982Z,45.81
2022-08-30T06:48:19.524Z,46.29
2022-08-30T06:49:22.611Z,47.91
2022-08-30T06:50:25.297Z,48.84
2022-08-30T06:51:34.461Z,47.47
2022-08-30T06:52:36.652Z,45.63
2022-08-30T06:53:38.413Z,46.68
2022-08-30T06:54:42.278Z,45.82
2022-08-30T06:55:43.786Z,44.67
2022-08-30T06:56:58.231Z,45.41
2022-08-30T06:58:01.030Z,45.92
2022-08-30T06:59:02.612Z,45.11
2022-08-30T07:00:06.713Z,45.22
2022-08-30T07:01:12.904Z,43.37
2022-08-30T07:02:14.631Z,44.35
2022-08-30T07:03:16.314Z,45.33
2022-08-30T07:04:18.007Z,45.62
2022-08-30T07:05:22.902Z,45.62
2022-08-30T07:06:27.270Z,44.52
2022-08-30T07:07:28.888Z,44.33
2022-08-30T07:08:30.894Z,43.73
2022-08-30T07:10:34.065Z,46.06
2022-08-30T07:11:37.603Z,44.53
2022-08-30T07:12:39.130Z,45.31
2022-08-30T07:13:40.708Z,44.44
2022-08-30T07:14:43.100Z,43.37
2022-08-30T07:15:45.642Z,43.83
2022-08-30T07:16:47.390Z,44.41
2022-08-30T07:18:11.868Z,44.89
2022-08-30T07:19:18.579Z,46.58
2022-08-30T07:20:23.153Z,44.42
2022-08-30T07:21:35.266Z,44.22
2022-08-30T07:22:36.920Z,43.23
2022-08-30T07:23:38.722Z,43.54
2022-08-30T07:24:40.851Z,43.38
2022-08-30T07:25:42.441Z,43.34
2022-08-30T07:26:48.939Z,42.79
2022-08-30T07:27:52.045Z,42.78
2022-08-30T07:28:55.894Z,42.00
2022-08-30T07:29:58.884Z,41.36
2022-08-30T07:31:01.225Z,40.90
2022-08-30T07:32:03.569Z,41.20
2022-08-30T07:33:05.189Z,40.91
2022-08-30T07:34:08.170Z,41.37
2022-08-30T07:35:10.372Z,42.67
2022-08-30T07:36:12.737Z,42.36
2022-08-30T07:37:18.083Z,42.44
2022-08-30T07:38:19.914Z,41.73
2022-08-30T07:39:21.595Z,41.86
2022-08-30T07:40:23.409Z,42.14
2022-08-30T07:41:30.527Z,41.59
2022-08-30T07:42:32.086Z,42.25
2022-08-30T07:43:37.901Z,40.47
2022-08-30T07:44:39.578Z,39.79
2022-08-30T07:45:41.646Z,39.56
2022-08-30T07:46:43.653Z,40.17
2022-08-30T07:47:45.694Z,39.28
2022-08-30T07:48:47.585Z,39.67
2022-08-30T07:49:49.095Z,38.29
2022-08-30T07:50:53.728Z,38.11
2022-08-30T07:51:58.733Z,38.77
2022-08-30T07:53:00.278Z,38.16
2022-08-30T07:54:01.809Z,38.55
2022-08-30T07:55:04.275Z,39.47
2022-08-30T07:56:06.173Z,38.96
2022-08-30T07:57:08.005Z,39.09
2022-08-30T07:58:09.573Z,39.70
2022-08-30T07:59:11.178Z,40.84
2022-08-30T08:00:13.363Z,40.19
2022-08-30T08:01:16.006Z,39.72
2022-08-30T08:02:18.486Z,40.76
2022-08-30T08:03:20.151Z,40.87
2022-08-30T08:04:21.824Z,41.51
2022-08-30T08:05:24.918Z,40.44
2022-08-30T08:06:27.640Z,40.12
2022-08-30T08:07:35.539Z,39.89
2022-08-30T08:08:38.192Z,40.33
2022-08-30T08:09:39.719Z,39.34
2022-08-30T08:10:42.228Z,40.04
2022-08-30T08:11:43.992Z,40.50
2022-08-30T08:12:45.568Z,40.18
2022-08-30T08:13:54.197Z,40.48
2022-08-30T08:14:56.020Z,39.55
2022-08-30T08:15:57.652Z,39.38
2022-08-30T08:16:59.754Z,38.72
2022-08-30T08:18:01.363Z,38.50
2022-08-30T08:19:04.535Z,38.97
2022-08-30T08:20:06.656Z,39.22
2022-08-30T08:21:08.310Z,39.41
2022-08-30T08:22:20.609Z,39.15
2022-08-30T08:23:22.744Z,37.57
2022-08-30T08:24:24.417Z,38.17
2022-08-30T08:25:27.115Z,37.67
2022-08-30T08:26:28.877Z,37.56
2022-08-30T08:27:31.009Z,37.81
2022-08-30T08:28:32.571Z,38.11
2022-08-30T08:29:34.209Z,38.74
2022-08-30T08:30:37.601Z,38.84
2022-08-30T08:31:41.310Z,39.51
2022-08-30T08:32:42.917Z,39.96
2022-08-30T08:33:44.923Z,39.70
2022-08-30T08:34:46.562Z,38.48
2022-08-30T08:35:48.218Z,37.98
2022-08-30T08:36:50.929Z,37.65
2022-08-30T08:37:53.368Z,37.38
2022-08-30T08:38:54.900Z,36.88
2022-08-30T08:39:56.410Z,37.71
2022-08-30T08:41:23.000Z,37.00
2022-08-30T08:42:48.736Z,37.59
2022-08-30T08:43:50.336Z,36.97
2022-08-30T08:45:03.788Z,36.62
2022-08-30T08:46:25.436Z,36.61
2022-08-30T08:47:51.594Z,36.15
2022-08-30T08:49:00.832Z,37.02
2022-08-30T08:50:07.352Z,37.17
2022-08-30T08:51:34.245Z,36.43
2022-08-30T08:53:46.421Z,36.93
2022-08-30T08:54:56.235Z,36.95
2022-08-30T08:56:03.304Z,36.27
2022-08-30T08:57:05.022Z,36.93
2022-08-30T08:58:06.593Z,36.51
2022-08-30T08:59:10.058Z,37.38
2022-08-30T09:00:13.834Z,36.86
2022-08-30T09:01:18.280Z,36.77
2022-08-30T09:02:26.357Z,36.31
2022-08-30T09:03:29.309Z,35.79
2022-08-30T09:04:35.895Z,35.77
2022-08-30T09:05:40.636Z,36.15
2022-08-30T09:06:50.911Z,35.87
2022-08-30T09:07:58.737Z,36.04
2022-08-30T09:09:02.074Z,36.66
2022-08-30T09:10:05.558Z,35.53
2022-08-30T09:11:17.504Z,35.11
2022-08-30T09:12:22.409Z,35.05
2022-08-30T09:13:25.088Z,35.65
2022-08-30T09:14:32.979Z,36.14
2022-08-30T09:15:35.439Z,37.05
2022-08-30T09:16:51.168Z,35.44
2022-08-30T09:17:55.420Z,36.01
2022-08-30T09:18:56.978Z,35.21
2022-08-30T09:20:00.459Z,34.80
2022-08-30T09:21:07.085Z,35.45
2022-08-30T09:22:35.322Z,34.69
2022-08-30T09:23:36.926Z,34.30
2022-08-30T09:24:48.026Z,33.86
2022-08-30T09:25:57.227Z,33.64
2022-08-30T09:27:14.749Z,34.00
2022-08-30T09:28:23.719Z,33.49
2022-08-30T09:29:26.599Z,34.18
2022-08-30T09:30:30.087Z,34.14
2022-08-30T09:31:33.776Z,34.46
2022-08-30T09:32:39.961Z,33.11
2022-08-30T09:33:41.492Z,33.50
2022-08-30T09:34:43.750Z,32.44
2022-08-30T09:35:49.377Z,31.53
2022-08-30T09:36:53.769Z,32.05
2022-08-30T09:38:03.324Z,31.46
2022-08-30T09:39:13.801Z,32.11
2022-08-30T09:40:24.766Z,33.09
2022-08-30T09:41:33.927Z,33.37
2022-08-30T09:42:35.922Z,34.14
2022-08-30T09:43:37.602Z,33.55
2022-08-30T09:44:40.316Z,33.69
2022-08-30T09:45:47.121Z,33.87
2022-08-30T09:46:56.854Z,33.84
2022-08-30T09:47:58.551Z,34.35
2022-08-30T09:49:00.113Z,34.26
2022-08-30T09:50:12.919Z,34.04
2022-08-30T09:51:23.836Z,34.30
2022-08-30T09:54:35.906Z,36.22
2022-08-30T09:55:51.569Z,35.05
2022-08-30T09:56:56.777Z,33.93
2022-08-30T09:58:26.773Z,34.36
2022-08-30T09:59:39.893Z,33.38
2022-08-30T10:00:55.314Z,32.70
2022-08-30T10:02:16.543Z,33.62
2022-08-30T10:03:40.593Z,33.22
2022-08-30T10:05:08.471Z,31.91
2022-08-30T10:06:15.069Z,31.37
2022-08-30T10:07:46.177Z,30.79
2022-08-30T10:09:23.380Z,30.00
2022-08-30T10:11:00.943Z,29.48
2022-08-30T10:12:02.412Z,29.35
2022-08-30T10:13:28.640Z,30.03
2022-08-30T10:14:30.150Z,30.75
2022-08-30T10:16:26.224Z,32.25
2022-08-30T10:17:56.526Z,31.84
2022-08-30T10:19:25.620Z,30.29
2022-08-30T10:20:36.630Z,31.85
2022-08-30T10:22:03.227Z,31.17
2022-08-30T10:23:26.724Z,31.40
2022-08-30T10:24:35.690Z,30.07
2022-08-30T10:25:44.013Z,30.52
2022-08-30T10:26:50.151Z,30.51
2022-08-30T10:28:10.478Z,31.96
2022-08-30T10:29:25.429Z,30.74
2022-08-30T10:30:29.183Z,30.08
2022-08-30T10:31:41.794Z,30.42
2022-08-30T10:33:05.086Z,28.95
2022-08-30T10:34:17.985Z,29.06
2022-08-30T10:35:34.074Z,28.69
2022-08-30T10:36:48.548Z,29.64
2022-08-30T10:38:02.769Z,29.56
2022-08-30T10:39:07.633Z,29.30
2022-08-30T10:40:37.586Z,28.19
2022-08-30T10:42:08.626Z,28.68
2022-08-30T10:43:22.131Z,28.80
2022-08-30T10:44:29.213Z,28.96
2022-08-30T10:45:35.808Z,28.51
2022-08-30T10:46:58.060Z,28.79
2022-08-30T10:48:19.873Z,29.46
2022-08-30T10:49:23.634Z,29.60
2022-08-30T10:50:41.630Z,30.35
2022-08-30T10:52:05.107Z,31.28
2022-08-30T10:53:15.356Z,30.54
2022-08-30T10:54:23.500Z,30.35
2022-08-30T10:55:36.212Z,29.93
2022-08-30T10:56:42.932Z,30.89
2022-08-30T10:57:45.313Z,31.21
2022-08-30T10:58:48.014Z,31.94
2022-08-30T10:59:58.418Z,32.13
2022-08-30T11:01:17.643Z,31.23
2022-08-30T11:02:27.396Z,33.01
2022-08-30T11:03:28.855Z,32.50
2022-08-30T11:04:33.612Z,33.15
2022-08-30T11:06:00.097Z,33.28
2022-08-30T11:07:37.933Z,34.20
2022-08-30T11:09:09.682Z,34.17
2022-08-30T11:10:39.405Z,33.99
2022-08-30T11:11:57.349Z,34.52
2022-08-30T11:13:12.609Z,33.53
2022-08-30T11:14:17.433Z,33.38
2022-08-30T11:15:25.757Z,32.52
2022-08-30T11:16:40.368Z,31.58
2022-08-30T11:17:54.799Z,31.62
2022-08-30T11:18:58.389Z,30.35
2022-08-30T11:20:02.977Z,31.23
2022-08-30T11:21:23.256Z,31.42
2022-08-30T11:22:27.760Z,30.19
2022-08-30T11:23:33.180Z,31.18
2022-08-30T11:24:57.658Z,32.25
2022-08-30T11:26:15.938Z,33.15
2022-08-30T11:27:53.706Z,34.86
2022-08-30T11:28:58.120Z,33.21
2022-08-30T11:30:26.722Z,33.72
2022-08-30T11:31:39.163Z,33.43
2022-08-30T11:33:18.048Z,34.65
2022-08-30T11:34:45.489Z,35.63
2022-08-30T11:35:49.988Z,36.44
2022-08-30T11:37:00.201Z,36.16
2022-08-30T11:38:16.902Z,35.47
2022-08-30T11:39:54.798Z,34.83
2022-08-30T11:40:56.295Z,34.68
2022-08-30T11:42:34.341Z,36.31
2022-08-30T11:43:37.253Z,34.56
2022-08-30T11:44:38.891Z,35.92
2022-08-30T11:45:43.542Z,35.08
2022-08-30T11:46:45.404Z,34.61
2022-08-30T11:47:55.648Z,33.81
2022-08-30T11:49:15.683Z,33.95
2022-08-30T11:50:23.212Z,34.79
2022-08-30T11:51:37.009Z,32.81
2022-08-30T11:53:05.742Z,30.50
2022-08-30T11:54:26.657Z,31.10
2022-08-30T11:55:37.230Z,32.77
2022-08-30T11:56:54.606Z,32.64
2022-08-30T11:58:44.081Z,32.81
2022-08-30T12:00:09.994Z,31.39
2022-08-30T12:01:49.997Z,32.34
2022-08-30T12:03:03.801Z,32.11
2022-08-30T12:04:25.339Z,32.76
2022-08-30T12:05:38.170Z,31.43
2022-08-30T12:06:43.099Z,30.31
2022-08-30T12:08:03.337Z,29.71
2022-08-30T12:09:05.672Z,30.71
2022-08-30T12:10:23.504Z,31.38
2022-08-30T12:11:32.024Z,28.61
2022-08-30T12:12:47.629Z,28.48
2022-08-30T12:13:49.273Z,29.74
2022-08-30T12:14:54.948Z,29.82
2022-08-30T12:16:11.585Z,29.86
2022-08-30T12:17:40.051Z,27.98
2022-08-30T12:18:50.674Z,28.61
2022-08-30T12:19:52.861Z,28.79
2022-08-30T12:20:58.966Z,28.53
2022-08-30T12:22:06.028Z,28.71
2022-08-30T12:23:30.080Z,28.24
2022-08-30T12:24:43.522Z,27.49
2022-08-30T12:25:46.590Z,26.12
2022-08-30T12:26:51.311Z,26.27
2022-08-30T12:28:12.800Z,27.58
2022-08-30T12:29:22.431Z,27.62
2022-08-30T12:30:28.115Z,28.85
2022-08-30T12:31:29.910Z,29.03
2022-08-30T12:32:32.491Z,30.33
2022-08-30T12:33:42.669Z,29.89
2022-08-30T12:34:54.839Z,29.20
2022-08-30T12:35:59.546Z,28.89
2022-08-30T12:37:11.370Z,28.84
2022-08-30T12:38:22.352Z,28.34
2022-08-30T12:39:41.474Z,27.94
2022-08-30T12:40:55.949Z,27.66
2022-08-30T12:42:17.694Z,28.03
2022-08-30T12:43:27.324Z,27.40
2022-08-30T12:44:41.287Z,28.77
2022-08-30T12:45:50.740Z,30.05
2022-08-30T12:46:59.725Z,30.27
2022-08-30T12:48:08.369Z,30.84
2022-08-30T12:49:16.032Z,31.56
2022-08-30T12:50:33.982Z,32.68
2022-08-30T12:51:41.516Z,33.17
2022-08-30T12:52:46.449Z,33.14
2022-08-30T12:53:51.389Z,32.24
2022-08-30T12:54:55.110Z,31.91
2022-08-30T12:56:02.162Z,31.82
2022-08-30T12:57:34.862Z,32.92
2022-08-30T12:58:35.625Z,32.58
2022-08-30T12:59:52.954Z,32.39
2022-08-30T13:01:32.284Z,33.07
2022-08-30T13:03:01.483Z,33.92
2022-08-30T13:04:15.711Z,36.34
2022-08-30T13:05:48.017Z,35.10
2022-08-30T13:06:58.306Z,36.86
2022-08-30T13:08:14.255Z,35.62
2022-08-30T13:09:32.401Z,36.40
2022-08-30T13:10:34.726Z,34.85
2022-08-30T13:11:36.492Z,33.27
2022-08-30T13:12:40.221Z,32.13
2022-08-30T13:13:45.664Z,30.92
2022-08-30T13:15:16.987Z,30.17
2022-08-30T13:16:20.544Z,29.74
2022-08-30T13:17:27.660Z,28.58
2022-08-30T13:18:32.655Z,30.09
2022-08-30T13:19:41.092Z,30.94
2022-08-30T13:20:42.666Z,28.83
2022-08-30T13:21:54.386Z,28.89
2022-08-30T13:23:09.198Z,27.71
2022-08-30T13:24:10.750Z,28.98
2022-08-30T13:25:12.306Z,29.18
2022-08-30T13:26:14.180Z,27.56
2022-08-30T13:27:24.388Z,27.71
2022-08-30T13:28:25.867Z,27.81
2022-08-30T13:29:28.884Z,29.04
2022-08-30T13:30:31.506Z,29.34
2022-08-30T13:31:33.511Z,27.60
2022-08-30T13:32:38.982Z,27.41
2022-08-30T13:33:40.786Z,28.61
2022-08-30T13:34:43.459Z,29.33
2022-08-30T13:35:45.277Z,30.57
2022-08-30T13:36:50.184Z,30.80
2022-08-30T13:37:52.200Z,32.14
2022-08-30T13:38:54.590Z,30.68
2022-08-30T13:39:59.203Z,31.77
2022-08-30T13:41:04.053Z,32.00
2022-08-30T13:43:27.588Z,33.51
2022-08-30T13:44:29.741Z,33.69
2022-08-30T13:45:47.140Z,33.86
2022-08-30T13:46:55.252Z,33.31
2022-08-30T13:47:57.499Z,33.21
2022-08-30T13:49:04.894Z,35.08
2022-08-30T13:50:07.586Z,33.39
2022-08-30T13:51:11.320Z,35.12
2022-08-30T13:52:22.957Z,34.03
2022-08-30T13:54:46.371Z,33.62
2022-08-30T13:55:52.276Z,35.32
2022-08-30T13:56:55.019Z,34.24
2022-08-30T13:57:57.458Z,34.88
2022-08-30T13:59:03.020Z,34.07
2022-08-30T14:00:09.608Z,32.79
2022-08-30T14:01:11.324Z,33.43
2022-08-30T14:02:14.670Z,33.60
2022-08-30T14:03:16.627Z,33.47
2022-08-30T14:04:18.339Z,33.08
2022-08-30T14:05:47.187Z,32.42
2022-08-30T14:08:04.976Z,30.27
2022-08-30T14:09:07.812Z,30.68
2022-08-30T14:11:34.590Z,31.03
2022-08-30T14:13:38.973Z,30.60
2022-08-30T14:15:02.837Z,29.18
2022-08-30T14:17:30.858Z,32.17